createdAt,value
2019-06-26T00:01:00.477Z,60.9
2019-06-26T00:06:02.943Z,61
2019-06-26T00:11:05.456Z,61.2
2019-06-26T00:16:07.825Z,61.5
2019-06-26T00:21:10.247Z,61.6
2019-06-26T00:26:12.688Z,61.9
2019-06-26T00:31:15.192Z,62.1
2019-06-26T00:36:17.572Z,62.4
2019-06-26T00:41:20.131Z,62.7
2019-06-26T00:46:22.451Z,63
2019-06-26T00:51:24.905Z,63.2
2019-06-26T00:56:27.341Z,63.4
2019-06-26T01:01:29.831Z,63.4
2019-06-26T01:06:32.229Z,63.5
2019-06-26T01:11:34.816Z,64.1
2019-06-26T01:16:37.129Z,64.7
2019-06-26T01:21:39.549Z,65.1
2019-06-26T01:26:42.009Z,65.9
2019-06-26T01:31:44.444Z,66.6
2019-06-26T01:36:46.939Z,67.2
2019-06-26T01:41:49.415Z,67.8
2019-06-26T01:46:51.771Z,69
2019-06-26T01:51:54.263Z,70
2019-06-26T01:56:56.682Z,71.2
2019-06-26T02:01:59.132Z,71.1
2019-06-26T02:07:01.583Z,71.2
2019-06-26T02:12:04.112Z,71.7
2019-06-26T02:17:06.448Z,72.2
2019-06-26T02:22:08.878Z,72.7
2019-06-26T02:27:11.280Z,73.5
2019-06-26T02:32:13.772Z,74.6
2019-06-26T02:37:16.175Z,75.9
2019-06-26T02:42:18.834Z,76.8
2019-06-26T02:47:21.139Z,77.3
2019-06-26T02:52:23.547Z,78.1
2019-06-26T02:57:25.960Z,79
2019-06-26T03:02:28.432Z,79.6
2019-06-26T03:07:30.836Z,79.8
2019-06-26T03:12:33.332Z,81.1
2019-06-26T03:17:35.714Z,82
2019-06-26T03:22:38.137Z,83.3
2019-06-26T03:27:40.605Z,84.1
2019-06-26T03:32:43.109Z,84.7
2019-06-26T03:37:45.527Z,85.6
2019-06-26T03:42:48.028Z,86.2
2019-06-26T03:47:50.381Z,86.9
2019-06-26T03:52:52.800Z,87.7
2019-06-26T03:57:55.249Z,88.6
2019-06-26T04:02:57.687Z,90.4
2019-06-26T04:08:00.170Z,90.6
2019-06-26T04:13:02.563Z,90.7
2019-06-26T04:18:05.266Z,90.8
2019-06-26T04:23:07.451Z,91
2019-06-26T04:28:09.886Z,91.2
2019-06-26T04:33:12.347Z,91.4
2019-06-26T04:38:14.899Z,91.8
2019-06-26T04:43:17.324Z,91.9
2019-06-26T04:48:19.742Z,92.2
2019-06-26T04:53:22.100Z,92.5
2019-06-26T04:58:24.568Z,92.7
2019-06-26T05:03:27.021Z,92.7
2019-06-26T05:08:29.476Z,92.9
2019-06-26T05:13:31.962Z,92.8
2019-06-26T05:18:34.487Z,92.8
2019-06-26T05:23:36.786Z,92.6
2019-06-26T05:28:39.202Z,92.4
2019-06-26T05:33:41.651Z,92.4
2019-06-26T05:38:44.115Z,92.4
2019-06-26T05:43:46.621Z,92.1
2019-06-26T05:48:49.008Z,91.8
2019-06-26T05:53:51.449Z,91.4
2019-06-26T05:58:53.847Z,91.1
2019-06-26T06:03:56.521Z,90.9
2019-06-26T06:08:58.899Z,90.6
2019-06-26T06:14:01.257Z,90.7
2019-06-26T06:19:03.684Z,90.8
2019-06-26T06:24:06.056Z,91.1
2019-06-26T06:34:11.063Z,91
2019-06-26T06:39:13.382Z,88.9
2019-06-26T06:44:15.878Z,78.6
2019-06-26T06:49:18.251Z,74.6
2019-06-26T06:54:20.947Z,70.8
2019-06-26T06:59:23.192Z,68.5
2019-06-26T07:04:25.720Z,68
2019-06-26T07:09:28.035Z,67.2
2019-06-26T07:14:30.566Z,64.1
2019-06-26T07:19:32.932Z,62.9
2019-06-26T07:24:35.367Z,60.9
2019-06-26T07:29:37.805Z,59.4
2019-06-26T07:34:40.241Z,58.6
2019-06-26T07:39:42.729Z,58.2
2019-06-26T07:44:45.747Z,57.3
2019-06-26T07:49:47.565Z,56.8
2019-06-26T07:54:50.058Z,55.8
2019-06-26T07:59:52.448Z,55.6
2019-06-26T08:04:54.970Z,55.1
2019-06-26T08:09:57.335Z,55
2019-06-26T08:14:59.775Z,55.2
2019-06-26T08:20:02.275Z,54.5
2019-06-26T08:25:04.659Z,54
2019-06-26T08:30:07.122Z,54.7
2019-06-26T08:35:09.747Z,54.4
2019-06-26T08:40:12.052Z,53.9
2019-06-26T08:45:14.578Z,54.7
2019-06-26T08:50:16.948Z,53.2
2019-06-26T08:55:19.372Z,52.8
2019-06-26T09:00:21.798Z,53.8
2019-06-26T09:05:24.453Z,53
2019-06-26T09:10:26.648Z,52.9
2019-06-26T09:15:29.201Z,53
2019-06-26T09:20:31.551Z,52.4
2019-06-26T09:25:34.002Z,51.7
2019-06-26T09:30:36.521Z,51.7
2019-06-26T09:35:38.947Z,51.8
2019-06-26T09:40:41.313Z,51.3
2019-06-26T09:45:43.892Z,50.6
2019-06-26T09:50:46.168Z,50.9
2019-06-26T09:55:48.662Z,50.5
2019-06-26T10:00:51.057Z,50.4
2019-06-26T10:05:53.633Z,50.2
2019-06-26T10:10:55.940Z,49.2
2019-06-26T10:16:00.661Z,48.1
2019-06-26T10:21:00.814Z,47.9
2019-06-26T10:31:05.737Z,45.5
2019-06-26T10:36:08.162Z,45.1
2019-06-26T10:41:10.585Z,44.3
2019-06-26T10:46:13.030Z,44.3
2019-06-26T10:51:15.536Z,43.6
2019-06-26T10:56:17.915Z,44.1
2019-06-26T11:01:20.807Z,43.4
2019-06-26T11:06:22.878Z,42.6
2019-06-26T11:11:25.318Z,42.7
2019-06-26T11:16:27.814Z,42.3
2019-06-26T11:21:30.129Z,42.7
2019-06-26T11:26:32.642Z,43.7
2019-06-26T11:31:35.082Z,43
2019-06-26T11:36:37.543Z,41.1
2019-06-26T11:41:39.903Z,41.2
2019-06-26T11:46:42.345Z,40.7
2019-06-26T11:51:44.829Z,40.4
2019-06-26T11:56:47.271Z,40.5
2019-06-26T12:01:49.677Z,40.6
2019-06-26T12:06:52.161Z,39.7
2019-06-26T12:11:54.589Z,38.9
2019-06-26T12:16:56.991Z,38.8
2019-06-26T12:21:59.534Z,39.5
2019-06-26T12:27:01.920Z,37.8
2019-06-26T12:32:04.398Z,37.7
2019-06-26T12:37:06.859Z,39
2019-06-26T12:42:09.193Z,37.7
2019-06-26T12:47:11.681Z,38.1
2019-06-26T12:52:16.910Z,37.6
2019-06-26T12:57:16.588Z,37.5
2019-06-26T13:02:19.014Z,36.6
2019-06-26T13:07:21.665Z,36.9
2019-06-26T13:27:31.240Z,36.7
2019-06-26T13:32:33.801Z,37.1
2019-06-26T13:37:36.121Z,36.8
2019-06-26T13:42:38.532Z,36.3
2019-06-26T13:47:41.005Z,36.9
2019-06-26T13:52:43.495Z,36.6
2019-06-26T13:57:45.885Z,35.9
2019-06-26T14:02:48.479Z,35.9
2019-06-26T14:07:50.779Z,35.3
2019-06-26T14:12:53.215Z,34.9
2019-06-26T14:17:55.683Z,34.8
2019-06-26T14:22:58.168Z,35.3
2019-06-26T14:28:00.761Z,35.6
2019-06-26T14:33:02.977Z,34.5
2019-06-26T14:38:05.471Z,33.8
2019-06-26T14:43:08.208Z,33
2019-06-26T14:48:11.351Z,32.6
2019-06-26T14:53:12.752Z,32.6
2019-06-26T14:58:15.333Z,32
2019-06-26T15:03:17.640Z,30.7
2019-06-26T15:08:20.125Z,31.5
2019-06-26T15:13:22.604Z,30.1
2019-06-26T15:18:24.976Z,30.1
2019-06-26T15:23:27.564Z,29.2
2019-06-26T15:28:29.865Z,29.4
2019-06-26T15:33:32.307Z,29
2019-06-26T15:38:34.830Z,28.6
2019-06-26T15:43:37.293Z,29.3
2019-06-26T15:48:39.738Z,29.2
2019-06-26T15:53:42.351Z,28.5
2019-06-26T15:58:44.548Z,28.2
2019-06-26T16:03:46.950Z,28.2
2019-06-26T16:08:49.388Z,28.7
2019-06-26T16:13:52.220Z,28.7
2019-06-26T16:23:56.873Z,29.4
2019-06-26T16:28:59.327Z,30
2019-06-26T16:34:01.611Z,30
2019-06-26T16:39:04.063Z,30.9
2019-06-26T16:44:06.533Z,32.3
2019-06-26T16:49:09.215Z,33.4
2019-06-26T16:54:11.434Z,34
2019-06-26T16:59:13.857Z,34.6
2019-06-26T17:04:16.294Z,35.1
2019-06-26T17:09:18.748Z,35.6
2019-06-26T17:14:21.249Z,35.9
2019-06-26T17:19:23.584Z,36.3
2019-06-26T17:24:26.045Z,35.9
2019-06-26T17:29:28.528Z,35.8
2019-06-26T17:34:30.918Z,36.1
2019-06-26T17:39:33.424Z,35.9
2019-06-26T17:44:36.091Z,36.1
2019-06-26T17:49:38.264Z,36.1
2019-06-26T17:54:40.684Z,36.4
2019-06-26T17:59:43.159Z,37
2019-06-26T18:09:48.122Z,37.7
2019-06-26T18:14:51.045Z,38
2019-06-26T18:19:54.038Z,38.2
2019-06-26T18:24:55.839Z,38.7
2019-06-26T18:29:57.797Z,39.1
2019-06-26T18:35:00.221Z,39.4
2019-06-26T18:40:02.718Z,40.4
2019-06-26T18:45:05.128Z,40.8
2019-06-26T18:50:07.618Z,41
2019-06-26T18:55:10.023Z,41.2
2019-06-26T19:00:12.635Z,41.7
2019-06-26T19:10:17.333Z,42
2019-06-26T19:15:19.868Z,42.2
2019-06-26T19:20:22.458Z,42.3
2019-06-26T19:25:24.766Z,42.4
2019-06-26T19:30:27.111Z,42.6
2019-06-26T19:35:29.582Z,42.8
2019-06-26T19:40:31.995Z,43.3
2019-06-26T19:45:34.435Z,43.8
2019-06-26T19:50:36.870Z,44.2
2019-06-26T19:55:39.313Z,44.7
2019-06-26T20:00:41.769Z,45
2019-06-26T20:05:44.224Z,45.2
2019-06-26T20:10:46.707Z,45.6
2019-06-26T20:15:49.095Z,46
2019-06-26T20:20:51.613Z,46.5
2019-06-26T20:25:54.029Z,47.5
2019-06-26T20:30:56.395Z,47.7
2019-06-26T20:35:58.834Z,47.8
2019-06-26T20:41:01.402Z,48
2019-06-26T20:46:03.784Z,48.2
2019-06-26T20:51:06.198Z,48.5
2019-06-26T20:56:08.660Z,48.5
2019-06-26T21:01:11.047Z,48.4
2019-06-26T21:06:13.507Z,48.4
2019-06-26T21:11:16.024Z,48.7
2019-06-26T21:16:18.398Z,49
2019-06-26T21:21:20.829Z,49
2019-06-26T21:26:23.417Z,49.1
2019-06-26T21:31:25.971Z,49.3
2019-06-26T21:36:28.150Z,49.5
2019-06-26T21:41:30.592Z,49.8
2019-06-26T21:46:33.046Z,49.9
2019-06-26T21:51:35.472Z,49.9
2019-06-26T21:56:38.005Z,50.2
2019-06-26T22:06:44.353Z,50.5
2019-06-26T22:11:45.358Z,50.7
2019-06-26T22:16:47.668Z,50.7
2019-06-26T22:21:50.151Z,50.8
2019-06-26T22:26:52.574Z,51.2
2019-06-26T22:31:54.993Z,51.4
2019-06-26T22:36:57.460Z,51.4
2019-06-26T22:41:59.889Z,51.5
2019-06-26T22:47:02.342Z,51.5
2019-06-26T22:52:04.811Z,51.6
2019-06-26T22:57:07.229Z,51.7
2019-06-26T23:02:09.644Z,51.8
2019-06-26T23:07:12.107Z,51.9
2019-06-26T23:12:14.690Z,52
2019-06-26T23:17:17.038Z,52.1
2019-06-26T23:22:19.435Z,52.3
2019-06-26T23:27:21.866Z,52.3
2019-06-26T23:32:24.327Z,52.2
2019-06-26T23:37:26.747Z,52.3
2019-06-26T23:42:29.277Z,52.2
2019-06-26T23:47:31.667Z,52.3
2019-06-26T23:52:34.169Z,52.2
2019-06-26T23:57:39.525Z,52.3
